Time;durP1;ratioP1;P1;durP2;ratioP2;P2;SDS_P1;SDS_P2;PMS_P1;PMS_P2;Temp;Humidity;BMP_temperature;BMP_pressure;BME280_temperature;BME280_humidity;BME280_pressure;Samples;Min_cycle;Max_cycle;Signal;HPM_P1;HPM_P2
2022/07/31 00:02:05;;;;;;;7.03;3.40;;;8.70;99.90;;;;;;5092862;28;20368;-75
2022/07/31 00:04:32;;;;;;;4.32;2.92;;;9.00;99.90;;;;;;5092331;28;20882;-78
2022/07/31 00:06:59;;;;;;;4.95;2.80;;;9.10;99.90;;;;;;5091825;28;20379;-75
2022/07/31 00:09:28;;;;;;;4.75;2.95;;;9.20;99.90;;;;;;5092036;28;20376;-75
2022/07/31 00:11:55;;;;;;;5.70;3.15;;;9.10;99.90;;;;;;5091868;28;20373;-75
2022/07/31 00:14:22;;;;;;;5.07;3.20;;;9.10;99.90;;;;;;5091716;28;20431;-77
2022/07/31 00:16:50;;;;;;;5.30;3.28;;;9.20;99.90;;;;;;5092066;28;20376;-74
2022/07/31 00:19:17;;;;;;;4.63;3.10;;;9.30;99.90;;;;;;5091784;28;20391;-74
2022/07/31 00:21:44;;;;;;;5.63;3.33;;;9.30;99.90;;;;;;5091528;28;20437;-79
2022/07/31 00:24:13;;;;;;;4.80;3.08;;;9.40;99.90;;;;;;5091653;28;20365;-77
2022/07/31 00:26:40;;;;;;;5.50;3.15;;;9.50;99.90;;;;;;5092033;28;20380;-83
2022/07/31 00:29:07;;;;;;;5.93;3.28;;;9.60;99.90;;;;;;5091692;28;20369;-78
2022/07/31 00:31:34;;;;;;;5.80;3.50;;;9.70;99.90;;;;;;5091612;28;20364;-78
2022/07/31 00:34:01;;;;;;;5.65;3.10;;;9.90;99.90;;;;;;5091856;28;20483;-75
2022/07/31 00:36:28;;;;;;;6.03;3.05;;;10.10;99.90;;;;;;5095373;28;20388;-76
2022/07/31 00:38:56;;;;;;;5.85;3.10;;;10.30;99.90;;;;;;5095383;28;20468;-73
2022/07/31 00:41:23;;;;;;;6.38;2.90;;;10.40;99.90;;;;;;5095446;28;20372;-72
2022/07/31 00:43:50;;;;;;;5.15;3.10;;;10.60;99.90;;;;;;5095316;28;20395;-74
2022/07/31 00:46:17;;;;;;;5.22;2.95;;;10.80;99.90;;;;;;5095059;28;20781;-75
2022/07/31 00:48:45;;;;;;;4.32;2.65;;;11.00;99.90;;;;;;5095396;28;20376;-78
2022/07/31 00:51:12;;;;;;;6.68;3.50;;;11.20;99.90;;;;;;5095407;28;20934;-75
2022/07/31 00:53:39;;;;;;;5.15;2.53;;;11.60;99.90;;;;;;5094758;28;20409;-80
2022/07/31 00:56:07;;;;;;;5.35;2.50;;;11.70;99.90;;;;;;5094960;28;20368;-75
2022/07/31 00:58:34;;;;;;;6.03;2.40;;;11.80;99.90;;;;;;5095095;28;20459;-78
2022/07/31 01:01:01;;;;;;;5.03;2.30;;;12.00;99.90;;;;;;5094845;28;20426;-79
2022/07/31 01:03:28;;;;;;;5.00;2.00;;;12.40;99.90;;;;;;5094954;28;20376;-78
2022/07/31 01:05:55;;;;;;;4.53;1.90;;;12.60;99.90;;;;;;5094773;28;20463;-75
2022/07/31 01:08:22;;;;;;;4.95;1.90;;;12.80;99.90;;;;;;5094579;28;20438;-80
2022/07/31 01:10:50;;;;;;;4.65;1.98;;;13.10;99.90;;;;;;5094779;28;20891;-76
2022/07/31 01:13:29;;;;;;;5.87;2.40;;;13.50;99.90;;;;;;5094712;28;20892;-77
2022/07/31 01:15:58;;;;;;;3.85;2.08;;;13.70;99.90;;;;;;5094962;28;20423;-77
2022/07/31 01:18:28;;;;;;;6.90;2.05;;;13.80;99.90;;;;;;5094916;28;20388;-74
2022/07/31 01:21:01;;;;;;;5.28;2.05;;;13.90;99.90;;;;;;5094883;28;20360;-76
2022/07/31 01:23:45;;;;;;;4.47;1.80;;;14.10;99.90;;;;;;5094677;28;20372;-75
2022/07/31 01:26:30;;;;;;;5.35;1.70;;;14.30;99.90;;;;;;5095238;28;20414;-79
2022/07/31 01:29:13;;;;;;;4.28;2.00;;;14.60;99.90;;;;;;5094581;28;20368;-76
2022/07/31 01:32:06;;;;;;;4.47;1.80;;;14.80;99.90;;;;;;5094432;28;20868;-79
2022/07/31 01:34:36;;;;;;;3.47;1.88;;;15.10;99.90;;;;;;5012338;28;20403;-79
2022/07/31 01:37:26;;;;;;;5.75;1.70;;;15.30;98.30;;;;;;5016713;28;20372;-80
2022/07/31 01:40:13;;;;;;;3.08;1.70;;;15.60;98.30;;;;;;5012878;28;20390;-82
2022/07/31 01:42:43;;;;;;;4.63;1.60;;;15.70;96.60;;;;;;5012060;28;20810;-81
2022/07/31 01:45:14;;;;;;;5.38;1.70;;;16.00;95.20;;;;;;5012005;28;20407;-79
2022/07/31 01:47:43;;;;;;;3.45;1.50;;;16.00;93.70;;;;;;5013003;28;20728;-79
2022/07/31 01:50:12;;;;;;;4.03;1.67;;;16.00;94.10;;;;;;5012333;28;20739;-78
2022/07/31 01:52:41;;;;;;;4.15;1.30;;;16.30;92.20;;;;;;5012453;28;20457;-79
2022/07/31 01:55:10;;;;;;;2.63;1.20;;;16.50;91.30;;;;;;5012507;28;20383;-78
2022/07/31 01:57:39;;;;;;;3.73;1.40;;;16.50;90.20;;;;;;5012098;28;20371;-79
2022/07/31 02:00:09;;;;;;;3.55;1.20;;;16.50;90.20;;;;;;5012044;28;20391;-79
2022/07/31 02:02:38;;;;;;;3.42;1.30;;;16.60;88.00;;;;;;5012065;28;20378;-80
2022/07/31 02:05:07;;;;;;;3.63;1.40;;;16.60;88.40;;;;;;5012308;28;20391;-81
2022/07/31 02:07:37;;;;;;;3.00;1.25;;;16.70;86.30;;;;;;5012194;28;20379;-80
2022/07/31 02:10:04;;;;;;;13.93;2.30;;;16.70;85.60;;;;;;5012115;28;20490;-79
2022/07/31 02:12:34;;;;;;;31.70;5.47;;;16.80;85.20;;;;;;5083960;28;20911;-78
2022/07/31 02:15:06;;;;;;;12.85;3.22;;;17.00;84.40;;;;;;5094308;28;20479;-79
2022/07/31 02:17:35;;;;;;;4.90;2.10;;;17.20;82.70;;;;;;5093843;28;20414;-78
2022/07/31 02:20:05;;;;;;;3.10;1.90;;;17.20;79.50;;;;;;5093678;28;20368;-81
2022/07/31 02:22:33;;;;;;;4.53;1.77;;;17.10;77.70;;;;;;5093868;28;20368;-81
2022/07/31 02:25:02;;;;;;;4.28;1.90;;;16.90;78.20;;;;;;5093653;28;20521;-79
2022/07/31 02:27:30;;;;;;;4.82;1.50;;;16.90;80.20;;;;;;5093829;28;20400;-77
2022/07/31 02:30:01;;;;;;;3.05;1.50;;;17.00;78.00;;;;;;5093738;28;20902;-78
2022/07/31 02:32:31;;;;;;;3.58;1.60;;;17.10;78.00;;;;;;5093962;28;20748;-84
2022/07/31 02:35:00;;;;;;;3.53;1.90;;;17.20;78.50;;;;;;5093430;28;20494;-86
2022/07/31 02:37:29;;;;;;;2.72;1.40;;;17.20;78.90;;;;;;5094505;28;20364;-87
2022/07/31 02:39:57;;;;;;;3.45;1.30;;;17.20;78.60;;;;;;5093598;28;20471;-83
2022/07/31 02:42:25;;;;;;;2.95;1.25;;;17.20;77.20;;;;;;5096122;28;20576;-85
2022/07/31 02:44:52;;;;;;;3.50;1.30;;;17.10;77.80;;;;;;5095574;28;20831;-85
2022/07/31 02:47:20;;;;;;;2.88;1.40;;;17.10;78.10;;;;;;5094970;28;20360;-85
2022/07/31 02:49:48;;;;;;;2.28;1.40;;;17.30;78.90;;;;;;5094560;28;20368;-83
2022/07/31 02:52:15;;;;;;;3.83;1.38;;;17.30;77.90;;;;;;5094342;28;20443;-84
2022/07/31 02:54:43;;;;;;;3.97;1.33;;;17.20;78.30;;;;;;5092295;28;20405;-83
2022/07/31 02:57:10;;;;;;;2.08;1.20;;;17.30;79.00;;;;;;5093266;28;20392;-85
2022/07/31 02:59:39;;;;;;;3.10;1.50;;;17.40;79.40;;;;;;5093543;28;20384;-83
2022/07/31 03:02:06;;;;;;;3.90;1.50;;;17.60;79.00;;;;;;5093969;28;20404;-86
2022/07/31 03:04:34;;;;;;;2.88;1.40;;;17.70;76.40;;;;;;5094063;28;20875;-88
2022/07/31 03:07:01;;;;;;;3.15;1.40;;;17.50;75.30;;;;;;5093715;28;20418;-86
2022/07/31 03:09:29;;;;;;;4.60;1.53;;;17.40;75.80;;;;;;5093727;28;20426;-86
2022/07/31 03:11:57;;;;;;;2.65;1.50;;;17.30;76.20;;;;;;5093625;28;20852;-89
2022/07/31 03:14:26;;;;;;;3.35;1.30;;;17.30;78.80;;;;;;5093488;28;20404;-86
2022/07/31 03:16:53;;;;;;;3.78;1.30;;;17.30;76.80;;;;;;5092997;28;20379;-86
2022/07/31 03:19:22;;;;;;;2.78;1.30;;;17.30;76.30;;;;;;5093246;28;20408;-86
2022/07/31 03:21:50;;;;;;;2.65;1.48;;;17.30;77.50;;;;;;5093105;28;20389;-85
2022/07/31 03:24:17;;;;;;;4.85;1.52;;;17.30;78.40;;;;;;5093989;28;20380;-85
2022/07/31 03:26:45;;;;;;;2.50;1.40;;;17.40;78.30;;;;;;5093003;28;20369;-88
2022/07/31 03:29:12;;;;;;;4.18;1.40;;;17.30;77.40;;;;;;5093062;28;20875;-86
2022/07/31 03:31:39;;;;;;;4.13;1.83;;;17.30;78.10;;;;;;5093040;28;20360;-86
2022/07/31 03:34:06;;;;;;;4.33;1.60;;;17.30;78.80;;;;;;5092771;28;20405;-86
2022/07/31 03:36:33;;;;;;;3.17;1.42;;;17.20;79.90;;;;;;5092865;28;20369;-86
2022/07/31 03:39:00;;;;;;;3.22;1.40;;;17.30;79.80;;;;;;5093028;28;20445;-86
2022/07/31 03:41:27;;;;;;;3.40;1.42;;;17.40;79.60;;;;;;5092979;28;20779;-86
2022/07/31 03:43:55;;;;;;;4.13;1.65;;;17.40;78.90;;;;;;5092720;28;20391;-85
2022/07/31 03:46:23;;;;;;;3.40;1.60;;;17.60;77.80;;;;;;5093027;28;20947;-87
2022/07/31 03:48:50;;;;;;;2.47;1.38;;;17.70;77.20;;;;;;5092567;28;20365;-84
2022/07/31 03:51:18;;;;;;;3.65;1.38;;;17.70;76.90;;;;;;5092611;28;20426;-86
2022/07/31 03:53:47;;;;;;;4.53;1.50;;;17.80;77.40;;;;;;5092506;28;20408;-86
2022/07/31 03:56:16;;;;;;;3.75;1.40;;;17.80;76.00;;;;;;5092775;28;20375;-86
2022/07/31 03:58:43;;;;;;;2.73;1.40;;;18.00;76.30;;;;;;5092834;28;20369;-86
2022/07/31 04:01:11;;;;;;;3.47;1.50;;;18.00;74.30;;;;;;5092929;28;20728;-80
2022/07/31 04:03:38;;;;;;;3.63;1.42;;;18.10;75.30;;;;;;5092310;28;20376;-82
2022/07/31 04:06:05;;;;;;;5.90;2.00;;;18.20;75.00;;;;;;5092279;28;20402;-83
2022/07/31 04:08:33;;;;;;;4.60;1.98;;;18.30;81.40;;;;;;5093217;28;20387;-83
2022/07/31 04:11:00;;;;;;;4.75;1.65;;;18.10;84.00;;;;;;5096690;28;20372;-82
2022/07/31 04:13:27;;;;;;;2.78;1.45;;;17.90;82.70;;;;;;5096194;28;20385;-82
2022/07/31 04:15:54;;;;;;;5.00;1.60;;;17.80;86.10;;;;;;5096323;28;20468;-82
2022/07/31 04:18:21;;;;;;;3.88;1.60;;;17.80;85.10;;;;;;5096100;28;20367;-83
2022/07/31 04:20:48;;;;;;;3.70;1.60;;;17.60;79.50;;;;;;5096335;28;20459;-83
2022/07/31 04:23:16;;;;;;;3.60;1.50;;;17.40;80.90;;;;;;5096246;28;20486;-82
2022/07/31 04:25:43;;;;;;;3.17;1.60;;;17.50;82.90;;;;;;5096106;28;20379;-83
2022/07/31 04:28:10;;;;;;;2.53;1.60;;;17.50;88.30;;;;;;5096061;28;20497;-83
2022/07/31 04:30:38;;;;;;;2.75;1.50;;;17.50;85.20;;;;;;5095842;28;20365;-82
2022/07/31 04:33:05;;;;;;;5.30;1.60;;;17.40;81.70;;;;;;5094426;28;20403;-83
2022/07/31 04:35:32;;;;;;;5.57;2.13;;;17.40;82.50;;;;;;5095915;28;20372;-81
2022/07/31 04:37:59;;;;;;;8.07;2.88;;;17.30;85.10;;;;;;5095838;28;20376;-83
2022/07/31 04:40:27;;;;;;;4.65;1.63;;;17.20;91.20;;;;;;5095873;28;20375;-83
2022/07/31 04:42:54;;;;;;;2.90;1.42;;;17.10;90.60;;;;;;5095821;28;20415;-83
2022/07/31 04:45:21;;;;;;;3.47;1.67;;;17.00;85.00;;;;;;5095849;28;20376;-83
2022/07/31 04:47:52;;;;;;;4.72;2.42;;;16.90;85.30;;;;;;5094804;28;20592;-82
2022/07/31 04:50:19;;;;;;;4.25;1.90;;;16.90;89.50;;;;;;5095639;28;20886;-84
2022/07/31 04:52:48;;;;;;;3.37;1.77;;;16.90;90.30;;;;;;5095917;28;20468;-82
2022/07/31 04:55:15;;;;;;;4.20;2.22;;;16.90;89.00;;;;;;5095567;28;20388;-82
2022/07/31 04:57:43;;;;;;;4.40;2.03;;;16.90;85.70;;;;;;5095527;28;20372;-82
2022/07/31 05:00:10;;;;;;;5.97;3.03;;;16.80;88.40;;;;;;5095641;28;20881;-83
2022/07/31 05:02:39;;;;;;;3.53;1.50;;;16.80;86.20;;;;;;5095419;28;20460;-82
2022/07/31 05:05:06;;;;;;;11.18;9.30;;;16.80;88.60;;;;;;5095319;28;20410;-82
2022/07/31 05:07:33;;;;;;;5.22;3.80;;;16.70;88.20;;;;;;5095318;28;20376;-83
2022/07/31 05:10:01;;;;;;;8.75;6.03;;;16.60;88.90;;;;;;5095520;28;20398;-84
2022/07/31 05:12:28;;;;;;;5.43;2.88;;;16.60;87.40;;;;;;5095605;28;20844;-82
2022/07/31 05:14:55;;;;;;;7.63;5.25;;;16.70;90.20;;;;;;5094931;28;20384;-83
2022/07/31 05:17:22;;;;;;;5.07;2.83;;;16.60;88.80;;;;;;5094937;28;20781;-82
2022/07/31 05:19:49;;;;;;;9.73;4.80;;;16.70;90.10;;;;;;5094586;28;20379;-80
2022/07/31 05:22:17;;;;;;;7.20;4.28;;;16.60;87.70;;;;;;5095136;28;20365;-81
2022/07/31 05:24:44;;;;;;;5.13;2.40;;;16.50;89.60;;;;;;5095000;28;20860;-82
2022/07/31 05:27:11;;;;;;;3.60;1.83;;;16.50;88.70;;;;;;5095321;28;20376;-90
2022/07/31 05:29:38;;;;;;;3.57;1.63;;;16.50;88.50;;;;;;5096595;28;20434;-88
2022/07/31 05:32:06;;;;;;;2.78;1.38;;;16.30;89.70;;;;;;5096128;28;20467;-86
2022/07/31 05:34:33;;;;;;;3.47;1.50;;;16.30;90.00;;;;;;5095890;28;20396;-85
2022/07/31 05:37:01;;;;;;;2.67;1.30;;;16.30;91.70;;;;;;5095321;28;20451;-87
2022/07/31 05:39:29;;;;;;;3.10;1.40;;;16.10;90.50;;;;;;5094861;28;20372;-85
2022/07/31 05:41:57;;;;;;;3.35;1.30;;;16.10;90.50;;;;;;5094356;28;20372;-87
2022/07/31 05:44:24;;;;;;;2.72;1.42;;;16.00;90.80;;;;;;5094472;28;20376;-87
2022/07/31 05:46:52;;;;;;;3.35;1.30;;;15.90;91.00;;;;;;5095665;28;20373;-84
2022/07/31 05:49:21;;;;;;;3.22;1.50;;;15.90;91.50;;;;;;5095608;28;20384;-85
2022/07/31 05:51:52;;;;;;;2.27;1.40;;;15.90;90.80;;;;;;5094977;28;20376;-86
2022/07/31 05:54:20;;;;;;;3.30;2.03;;;15.80;91.20;;;;;;5095313;28;20396;-85
2022/07/31 05:56:47;;;;;;;3.38;2.03;;;15.70;91.40;;;;;;5095888;28;20862;-86
2022/07/31 05:59:14;;;;;;;3.30;1.70;;;15.70;92.20;;;;;;5095474;28;20951;-86
2022/07/31 06:01:41;;;;;;;5.00;2.30;;;15.70;92.30;;;;;;5095461;28;20855;-85
2022/07/31 06:04:09;;;;;;;2.90;2.15;;;15.70;92.70;;;;;;5095594;28;20426;-87
2022/07/31 06:06:36;;;;;;;5.05;2.67;;;15.60;92.50;;;;;;5095679;28;20404;-85
2022/07/31 06:09:03;;;;;;;4.93;2.50;;;15.50;92.60;;;;;;5105026;28;20372;-85
2022/07/31 06:11:31;;;;;;;3.40;1.92;;;15.50;93.00;;;;;;5113700;28;20383;-84
2022/07/31 06:13:58;;;;;;;5.18;2.50;;;15.50;93.10;;;;;;5113625;28;20411;-86
2022/07/31 06:16:25;;;;;;;5.83;2.53;;;15.40;93.20;;;;;;5115004;28;20382;-85
2022/07/31 06:18:52;;;;;;;4.80;3.25;;;15.40;93.50;;;;;;5114056;28;20380;-84
2022/07/31 06:21:19;;;;;;;5.07;2.85;;;15.40;94.90;;;;;;5113376;28;20356;-80
2022/07/31 06:23:46;;;;;;;4.32;2.70;;;15.40;94.90;;;;;;5096818;28;20405;-82
2022/07/31 06:26:13;;;;;;;4.35;2.70;;;15.50;96.60;;;;;;5094552;28;20821;-81
2022/07/31 06:28:41;;;;;;;6.00;2.90;;;15.60;95.80;;;;;;5094221;28;20376;-82
2022/07/31 06:31:08;;;;;;;4.50;3.08;;;15.70;95.80;;;;;;5094025;28;20813;-83
2022/07/31 06:33:35;;;;;;;5.50;3.40;;;15.80;95.50;;;;;;5092079;28;20440;-83
2022/07/31 06:36:02;;;;;;;6.10;3.30;;;15.80;95.80;;;;;;5094027;28;20452;-80
2022/07/31 06:38:29;;;;;;;5.15;3.30;;;15.70;95.10;;;;;;5093799;28;20868;-81
2022/07/31 06:40:56;;;;;;;4.28;2.80;;;15.70;95.70;;;;;;5093765;28;20499;-84
2022/07/31 06:43:23;;;;;;;5.07;3.40;;;15.80;95.60;;;;;;5093623;28;20395;-84
2022/07/31 06:45:51;;;;;;;6.90;3.60;;;15.80;95.50;;;;;;5093487;28;20370;-86
2022/07/31 06:48:18;;;;;;;7.25;3.30;;;15.80;97.10;;;;;;5093499;28;20373;-82
2022/07/31 06:50:45;;;;;;;5.30;3.03;;;15.80;96.60;;;;;;5093320;28;20751;-83
2022/07/31 06:53:12;;;;;;;6.50;3.70;;;15.70;96.60;;;;;;5093518;28;20395;-87
2022/07/31 06:55:40;;;;;;;7.10;4.05;;;15.60;97.20;;;;;;5093317;28;20441;-83
2022/07/31 06:58:07;;;;;;;6.78;3.53;;;15.60;96.70;;;;;;5094077;28;20714;-82
2022/07/31 07:00:34;;;;;;;4.40;2.40;;;15.60;96.90;;;;;;5095707;28;20805;-84
2022/07/31 07:03:01;;;;;;;3.88;2.35;;;15.60;94.90;;;;;;5093985;28;20372;-87
2022/07/31 07:05:28;;;;;;;9.90;2.70;;;15.60;96.60;;;;;;5094704;28;20395;-86
2022/07/31 07:07:55;;;;;;;5.03;2.20;;;15.50;95.90;;;;;;5093463;28;20413;-86
2022/07/31 07:10:23;;;;;;;4.57;2.60;;;15.50;95.50;;;;;;5093804;28;20373;-88
2022/07/31 07:12:50;;;;;;;6.97;2.95;;;15.50;95.80;;;;;;5093872;28;20746;-83
2022/07/31 07:15:17;;;;;;;4.13;2.67;;;15.30;96.50;;;;;;5093680;28;20741;-87
2022/07/31 07:17:44;;;;;;;6.17;2.80;;;15.30;96.70;;;;;;5092012;28;20372;-87
2022/07/31 07:20:12;;;;;;;5.90;2.70;;;15.20;96.70;;;;;;5092963;28;20372;-82
2022/07/31 07:22:39;;;;;;;7.13;3.00;;;15.20;96.00;;;;;;5093553;28;20369;-85
2022/07/31 07:25:07;;;;;;;6.90;3.03;;;15.10;97.10;;;;;;5092264;28;20407;-84
2022/07/31 07:27:34;;;;;;;5.60;3.10;;;15.10;97.50;;;;;;5092586;28;20383;-84
2022/07/31 07:30:01;;;;;;;6.83;3.90;;;15.10;96.90;;;;;;5092789;28;20380;-83
2022/07/31 07:32:28;;;;;;;10.40;6.88;;;15.00;96.00;;;;;;5093966;28;20364;-84
2022/07/31 07:34:55;;;;;;;9.20;6.40;;;14.90;96.40;;;;;;5092657;28;20400;-86
2022/07/31 07:37:22;;;;;;;6.95;4.80;;;14.90;97.40;;;;;;5093057;28;20403;-87
2022/07/31 07:39:49;;;;;;;8.43;4.22;;;14.90;97.10;;;;;;5093361;28;20884;-83
2022/07/31 07:42:16;;;;;;;6.30;3.80;;;14.90;96.60;;;;;;5091079;28;20388;-87
2022/07/31 07:44:43;;;;;;;5.30;3.13;;;14.80;97.30;;;;;;5092166;28;20455;-85
2022/07/31 07:47:15;;;;;;;6.63;3.42;;;14.80;97.10;;;;;;5092267;28;20763;-83
2022/07/31 07:49:42;;;;;;;6.07;3.38;;;14.70;97.40;;;;;;5092287;28;20387;-82
2022/07/31 07:52:09;;;;;;;6.38;3.30;;;14.70;97.70;;;;;;5092258;28;20445;-82
2022/07/31 07:54:36;;;;;;;7.53;4.03;;;14.60;97.70;;;;;;5092118;28;20400;-83
2022/07/31 07:57:03;;;;;;;7.05;4.20;;;14.50;97.90;;;;;;5092070;28;20848;-83
2022/07/31 07:59:31;;;;;;;7.50;3.72;;;14.30;99.90;;;;;;5091802;28;20383;-82
2022/07/31 08:01:58;;;;;;;5.80;3.50;;;14.20;99.90;;;;;;5091875;28;20369;-85
2022/07/31 08:04:25;;;;;;;5.93;3.60;;;14.20;99.90;;;;;;5091873;28;20460;-84
2022/07/31 08:06:52;;;;;;;7.88;3.70;;;14.20;99.90;;;;;;5094038;28;20925;-84
2022/07/31 08:09:21;;;;;;;5.78;3.75;;;14.20;99.90;;;;;;5095258;28;20386;-82
2022/07/31 08:11:49;;;;;;;6.00;3.47;;;14.20;99.90;;;;;;5092189;28;20420;-85
2022/07/31 08:14:16;;;;;;;6.70;3.80;;;14.10;99.90;;;;;;5092117;28;20428;-84
2022/07/31 08:16:43;;;;;;;5.80;3.70;;;14.10;99.90;;;;;;5094007;28;20356;-89
2022/07/31 08:19:10;;;;;;;8.10;3.60;;;14.10;99.90;;;;;;5094215;28;20380;-87
2022/07/31 08:21:38;;;;;;;4.97;3.33;;;14.10;99.90;;;;;;5093296;28;20376;-83
2022/07/31 08:24:10;;;;;;;6.28;3.30;;;14.20;99.90;;;;;;5091982;28;20376;-88
2022/07/31 08:29:23;;;;;;;5.33;2.67;;;14.20;99.90;;;;;;5092797;28;20392;-84
2022/07/31 08:31:51;;;;;;;6.03;2.80;;;14.20;99.90;;;;;;5092000;28;20407;-83
2022/07/31 08:34:18;;;;;;;5.03;2.80;;;14.20;99.70;;;;;;5092078;28;20408;-84
2022/07/31 08:36:45;;;;;;;4.95;2.97;;;14.20;99.80;;;;;;5091964;28;20380;-85
2022/07/31 08:39:12;;;;;;;4.93;3.10;;;14.20;99.60;;;;;;5092364;28;20448;-85
2022/07/31 08:41:40;;;;;;;7.40;3.35;;;14.20;99.10;;;;;;5091249;28;20381;-85
2022/07/31 08:44:08;;;;;;;7.13;3.40;;;14.20;99.90;;;;;;5093400;28;20392;-86
2022/07/31 08:46:38;;;;;;;7.53;3.40;;;14.10;99.90;;;;;;5092485;28;20372;-82
2022/07/31 08:49:08;;;;;;;5.13;3.20;;;14.10;99.90;;;;;;5092347;28;20373;-86
2022/07/31 08:51:39;;;;;;;7.10;3.42;;;14.00;99.20;;;;;;5094239;28;20372;-85
2022/07/31 08:54:11;;;;;;;6.60;3.42;;;14.00;99.90;;;;;;5094516;28;20428;-85
2022/07/31 08:56:39;;;;;;;6.38;3.45;;;14.00;99.90;;;;;;5094765;28;20357;-84
2022/07/31 08:59:07;;;;;;;6.13;3.60;;;13.90;99.60;;;;;;5095510;28;20377;-84
2022/07/31 09:01:36;;;;;;;5.43;3.30;;;13.90;99.90;;;;;;5095617;28;20407;-85
2022/07/31 09:04:04;;;;;;;6.60;3.40;;;13.80;99.90;;;;;;5095419;28;20365;-83
2022/07/31 09:06:31;;;;;;;9.68;3.47;;;13.80;99.90;;;;;;5095561;28;20844;-84
2022/07/31 09:08:58;;;;;;;5.18;3.60;;;13.80;99.90;;;;;;5095767;28;20381;-83
2022/07/31 09:11:25;;;;;;;6.60;3.60;;;13.80;99.90;;;;;;5095963;28;20367;-84
2022/07/31 09:13:58;;;;;;;6.13;3.50;;;13.70;99.90;;;;;;5095205;28;20763;-86
2022/07/31 09:16:25;;;;;;;5.45;3.55;;;13.70;99.90;;;;;;5095689;28;20774;-84
2022/07/31 09:19:05;;;;;;;8.13;3.58;;;13.70;99.90;;;;;;5095163;28;20384;-84
2022/07/31 09:21:42;;;;;;;5.43;3.20;;;13.60;99.90;;;;;;5096477;28;20361;-85
2022/07/31 09:24:11;;;;;;;5.25;3.13;;;13.60;99.90;;;;;;5095276;28;20373;-85
2022/07/31 09:26:43;;;;;;;5.80;3.20;;;13.60;99.90;;;;;;5095105;28;20436;-86
2022/07/31 09:29:13;;;;;;;5.00;3.20;;;13.60;99.90;;;;;;5094924;28;20459;-85
2022/07/31 09:31:40;;;;;;;6.50;3.00;;;13.60;99.90;;;;;;5095289;28;20732;-86
2022/07/31 09:34:07;;;;;;;6.57;3.30;;;13.50;99.90;;;;;;5094978;28;21001;-84
2022/07/31 09:36:34;;;;;;;5.43;3.07;;;13.50;99.90;;;;;;5094919;28;20384;-85
2022/07/31 09:39:17;;;;;;;4.10;2.78;;;13.50;99.90;;;;;;5094791;28;20385;-85
2022/07/31 09:41:55;;;;;;;5.10;3.05;;;13.40;99.90;;;;;;5094764;28;20361;-86
2022/07/31 09:44:22;;;;;;;4.78;3.13;;;13.40;99.90;;;;;;5094578;28;20434;-85
2022/07/31 09:46:50;;;;;;;7.53;3.63;;;13.40;99.90;;;;;;5094924;28;20396;-87
2022/07/31 09:49:17;;;;;;;5.95;3.53;;;13.30;99.90;;;;;;5110475;28;20396;-85
2022/07/31 09:51:47;;;;;;;6.07;3.70;;;13.30;99.90;;;;;;5094627;28;20380;-85
2022/07/31 09:54:25;;;;;;;6.97;3.70;;;13.30;99.90;;;;;;5094517;28;20884;-83
2022/07/31 09:56:53;;;;;;;6.40;3.80;;;13.30;99.90;;;;;;5094755;28;20871;-82
2022/07/31 09:59:20;;;;;;;6.20;3.67;;;13.20;99.90;;;;;;5094298;28;20364;-87
2022/07/31 10:01:48;;;;;;;5.30;3.83;;;13.20;99.90;;;;;;5094443;28;20396;-87
2022/07/31 10:04:20;;;;;;;5.50;3.63;;;13.20;99.90;;;;;;5094213;28;20379;-85
2022/07/31 10:06:50;;;;;;;5.93;3.55;;;13.10;99.90;;;;;;5094069;28;20939;-84
2022/07/31 10:09:20;;;;;;;5.03;3.17;;;13.10;99.90;;;;;;5094136;28;20368;-84
2022/07/31 10:11:49;;;;;;;4.68;3.15;;;13.00;99.90;;;;;;5094062;28;20368;-84
2022/07/31 10:14:27;;;;;;;7.45;3.30;;;13.00;99.90;;;;;;5094030;28;20426;-84
2022/07/31 10:16:58;;;;;;;6.38;3.20;;;13.00;99.90;;;;;;5094146;28;20361;-85
2022/07/31 10:19:31;;;;;;;5.88;3.28;;;13.00;99.90;;;;;;5092713;28;20397;-85
2022/07/31 10:22:02;;;;;;;4.88;3.35;;;13.00;99.90;;;;;;5094062;28;20376;-85
2022/07/31 10:24:32;;;;;;;6.82;3.50;;;12.90;99.90;;;;;;5093815;28;20482;-84
2022/07/31 10:26:59;;;;;;;6.70;3.60;;;12.90;99.90;;;;;;5094664;28;20380;-85
2022/07/31 10:29:27;;;;;;;5.85;3.67;;;12.10;99.90;;;;;;5093809;28;20421;-86
2022/07/31 10:31:54;;;;;;;5.22;3.60;;;12.80;99.90;;;;;;5092496;28;20383;-85
2022/07/31 10:34:22;;;;;;;4.75;3.15;;;12.80;99.90;;;;;;5093707;28;20427;-84
2022/07/31 10:36:53;;;;;;;5.85;3.50;;;12.70;99.90;;;;;;5093901;28;20378;-85
2022/07/31 10:39:49;;;;;;;7.20;3.40;;;12.70;99.90;;;;;;5094086;28;20449;-85
2022/07/31 10:42:45;;;;;;;5.47;3.40;;;12.70;99.90;;;;;;5011397;28;20423;-85
2022/07/31 10:45:14;;;;;;;5.38;3.38;;;12.70;99.90;;;;;;5005140;28;20415;-85
2022/07/31 10:47:52;;;;;;;6.15;3.50;;;12.70;99.90;;;;;;5011964;28;20379;-84
2022/07/31 10:50:24;;;;;;;7.05;3.55;;;12.50;99.90;;;;;;5011918;28;20387;-86
2022/07/31 10:52:51;;;;;;;5.65;3.60;;;12.60;99.90;;;;;;5011298;28;20379;-85
2022/07/31 10:55:21;;;;;;;5.00;3.60;;;12.60;99.90;;;;;;5011478;28;20386;-84
2022/07/31 10:57:50;;;;;;;7.20;4.22;;;12.60;99.90;;;;;;5011346;28;20402;-85
2022/07/31 11:00:20;;;;;;;7.73;4.30;;;12.50;99.90;;;;;;5011575;28;20379;-85
2022/07/31 11:02:47;;;;;;;9.52;4.90;;;12.50;99.90;;;;;;4994969;28;20392;-85
2022/07/31 11:05:20;;;;;;;6.75;4.60;;;12.50;99.90;;;;;;5011003;28;20898;-84
2022/07/31 11:07:58;;;;;;;8.53;4.40;;;12.50;99.90;;;;;;5011071;28;20455;-85
2022/07/31 11:10:26;;;;;;;6.03;4.30;;;12.50;99.90;;;;;;5011060;28;20441;-85
2022/07/31 11:13:03;;;;;;;6.32;4.35;;;12.40;99.90;;;;;;5011201;28;20379;-85
2022/07/31 11:15:31;;;;;;;6.72;4.10;;;12.30;99.90;;;;;;4994383;28;20387;-83
2022/07/31 11:17:59;;;;;;;7.20;4.30;;;12.30;99.90;;;;;;5015496;28;20833;-85
2022/07/31 11:20:30;;;;;;;5.07;4.00;;;12.30;99.90;;;;;;5092992;28;20458;-85
2022/07/31 11:23:00;;;;;;;6.18;4.45;;;12.30;99.90;;;;;;5093113;28;20371;-84
2022/07/31 11:25:29;;;;;;;7.43;4.75;;;12.20;99.90;;;;;;5091496;28;20388;-84
2022/07/31 11:28:10;;;;;;;7.57;4.93;;;12.20;99.90;;;;;;5093051;28;20442;-84
2022/07/31 11:30:57;;;;;;;7.32;4.90;;;12.10;99.90;;;;;;5093247;28;20356;-85
2022/07/31 11:33:44;;;;;;;9.15;5.28;;;12.00;99.90;;;;;;5092595;28;21002;-83
2022/07/31 11:36:28;;;;;;;8.68;5.63;;;12.00;99.90;;;;;;5092541;28;20380;-83
2022/07/31 11:38:55;;;;;;;10.23;5.60;;;12.00;99.90;;;;;;5092612;28;20721;-84
2022/07/31 11:41:28;;;;;;;8.02;5.13;;;12.00;99.90;;;;;;5092522;28;20369;-84
2022/07/31 11:43:56;;;;;;;9.30;5.43;;;11.90;99.90;;;;;;5092251;28;20392;-85
2022/07/31 11:46:27;;;;;;;8.43;4.90;;;11.90;99.90;;;;;;5092351;28;20419;-85
2022/07/31 11:48:56;;;;;;;9.05;5.00;;;11.80;99.90;;;;;;5091183;28;20380;-84
2022/07/31 11:51:24;;;;;;;6.63;4.40;;;11.90;99.90;;;;;;5092168;28;20470;-84
2022/07/31 11:53:53;;;;;;;6.70;4.30;;;11.80;99.90;;;;;;5092416;28;20393;-84
2022/07/31 11:56:22;;;;;;;6.50;3.80;;;11.90;99.90;;;;;;5091250;28;20385;-85
2022/07/31 11:58:51;;;;;;;6.68;3.63;;;11.80;99.90;;;;;;5095129;28;20403;-84
2022/07/31 12:01:18;;;;;;;5.73;3.57;;;11.80;99.90;;;;;;5096576;28;20825;-84
2022/07/31 12:03:49;;;;;;;5.80;3.40;;;11.70;99.90;;;;;;5093769;28;20432;-84
2022/07/31 12:06:19;;;;;;;5.77;3.33;;;11.70;99.90;;;;;;5092807;28;20387;-84
2022/07/31 12:08:48;;;;;;;4.93;2.88;;;11.70;99.90;;;;;;5092702;28;20844;-84
2022/07/31 12:11:17;;;;;;;6.15;2.75;;;11.60;99.90;;;;;;5092874;28;20375;-83
2022/07/31 12:13:49;;;;;;;5.18;2.80;;;11.30;99.90;;;;;;5092824;28;20407;-84
2022/07/31 12:16:19;;;;;;;5.32;2.70;;;11.70;99.90;;;;;;5092387;28;20849;-84
2022/07/31 12:18:55;;;;;;;6.55;3.58;;;11.70;99.90;;;;;;5092711;28;20410;-85
2022/07/31 12:21:32;;;;;;;11.98;6.93;;;11.70;99.90;;;;;;5092122;28;20368;-84
2022/07/31 12:23:59;;;;;;;12.05;7.60;;;11.70;99.90;;;;;;5091644;28;20379;-84
2022/07/31 12:26:28;;;;;;;11.13;7.10;;;11.80;99.90;;;;;;5090971;28;20848;-84
2022/07/31 12:29:41;;;;;;;10.93;7.15;;;11.80;99.90;;;;;;5092429;28;20852;-84
2022/07/31 12:32:08;;;;;;;9.52;6.75;;;11.80;99.90;;;;;;5095815;28;20418;-83
2022/07/31 12:34:39;;;;;;;7.93;6.35;;;11.80;99.90;;;;;;5096146;28;20457;-84
2022/07/31 12:37:18;;;;;;;10.18;6.72;;;11.80;99.90;;;;;;5096370;28;20377;-84
2022/07/31 12:39:51;;;;;;;8.27;5.63;;;11.80;99.90;;;;;;5095957;28;20456;-84
2022/07/31 12:42:23;;;;;;;8.75;5.25;;;11.80;99.90;;;;;;5095888;28;20479;-84
2022/07/31 12:44:51;;;;;;;6.25;4.40;;;11.80;99.90;;;;;;5096799;28;20744;-83
2022/07/31 12:47:23;;;;;;;5.57;4.15;;;11.80;99.90;;;;;;5096085;28;20372;-84
2022/07/31 12:49:50;;;;;;;6.30;3.80;;;11.80;99.90;;;;;;5096559;28;20381;-84
2022/07/31 12:52:18;;;;;;;5.80;3.50;;;11.80;99.90;;;;;;5107269;28;20381;-83
2022/07/31 12:54:46;;;;;;;5.63;3.40;;;11.80;99.90;;;;;;5110755;28;20415;-83
2022/07/31 12:57:13;;;;;;;6.63;3.00;;;11.90;99.90;;;;;;5114849;28;20377;-83
2022/07/31 12:59:41;;;;;;;5.40;3.30;;;11.90;99.90;;;;;;5114248;28;20822;-83
2022/07/31 13:02:08;;;;;;;5.10;3.10;;;11.80;99.90;;;;;;5112736;28;20377;-83